createdAt,value
2019-04-22T00:00:53.818Z,11.80
2019-04-22T00:05:17.832Z,11.80
2019-04-22T00:09:45.557Z,11.70
2019-04-22T00:13:56.681Z,11.70
2019-04-22T00:18:16.566Z,11.60
2019-04-22T00:26:37.398Z,11.60
2019-04-22T00:30:47.112Z,11.60
2019-04-22T00:35:04.183Z,11.50
2019-04-22T00:39:21.906Z,11.50
2019-04-22T00:43:34.948Z,11.40
2019-04-22T00:47:46.274Z,11.40
2019-04-22T00:52:04.972Z,11.30
2019-04-22T00:56:13.303Z,11.30
2019-04-22T01:00:24.682Z,11.20
2019-04-22T01:04:40.635Z,11.00
2019-04-22T01:13:04.861Z,10.70
2019-04-22T01:17:16.529Z,10.60
2019-04-22T01:21:36.865Z,10.50
2019-04-22T01:25:42.131Z,10.40
2019-04-22T01:29:46.304Z,10.30
2019-04-22T01:34:02.385Z,10.30
2019-04-22T01:38:17.690Z,10.20
2019-04-22T01:42:43.147Z,10.10
2019-04-22T01:46:53.965Z,10.00
2019-04-22T01:50:54.951Z,9.90
2019-04-22T01:55:22.600Z,9.90
2019-04-22T01:59:20.085Z,9.80
2019-04-22T02:03:42.957Z,9.80
2019-04-22T02:07:48.239Z,9.70
2019-04-22T02:12:11.185Z,9.70
2019-04-22T02:16:15.079Z,9.60
2019-04-22T02:20:32.638Z,9.60
2019-04-22T02:24:48.026Z,9.50
2019-04-22T02:29:09.260Z,9.50
2019-04-22T02:33:45.767Z,9.50
2019-04-22T02:37:23.473Z,9.40
2019-04-22T02:41:36.332Z,9.30
2019-04-22T02:46:02.975Z,9.30
2019-04-22T02:50:07.024Z,9.30
2019-04-22T02:54:31.575Z,9.30
2019-04-22T02:58:37.319Z,9.20
2019-04-22T03:06:56.089Z,9.00
2019-04-22T03:15:35.655Z,9.00
2019-04-22T03:27:44.230Z,8.90
2019-04-22T03:32:36.113Z,8.70
2019-04-22T03:40:47.233Z,8.60
2019-04-22T03:45:00.905Z,8.50
2019-04-22T03:49:12.814Z,8.40
2019-04-22T03:57:48.868Z,8.20
2019-04-22T04:01:53.395Z,8.20
2019-04-22T04:10:15.115Z,8.10
2019-04-22T04:18:32.082Z,8.10
2019-04-22T04:31:21.876Z,9.10
2019-04-22T04:35:32.297Z,9.30
2019-04-22T04:39:34.187Z,9.50
2019-04-22T04:43:56.353Z,9.90
2019-04-22T04:48:13.710Z,10.20
2019-04-22T04:52:16.956Z,10.60
2019-04-22T04:56:30.362Z,10.70
2019-04-22T05:00:52.388Z,10.80
2019-04-22T05:05:06.545Z,10.90
2019-04-22T05:13:14.472Z,11.30
2019-04-22T05:17:43.678Z,11.50
2019-04-22T05:21:36.345Z,11.60
2019-04-22T05:25:51.372Z,11.80
2019-04-22T05:34:19.090Z,12.40
2019-04-22T05:38:38.393Z,12.60
2019-04-22T05:42:39.566Z,12.90
2019-04-22T05:46:53.291Z,12.70
2019-04-22T05:51:01.125Z,12.90
2019-04-22T05:55:22.750Z,13.20
2019-04-22T05:59:32.549Z,13.90
2019-04-22T06:03:47.237Z,14.20
2019-04-22T06:08:02.179Z,14.10
2019-04-22T06:12:10.285Z,14.40
2019-04-22T06:16:31.246Z,14.60
2019-04-22T06:20:55.034Z,14.80
2019-04-22T06:25:01.073Z,15.00
2019-04-22T06:29:16.369Z,15.20
2019-04-22T06:33:36.027Z,15.70
2019-04-22T06:37:43.454Z,15.90
2019-04-22T06:41:56.191Z,16.10
2019-04-22T06:46:10.384Z,15.80
2019-04-22T06:50:31.447Z,15.60
2019-04-22T06:54:32.864Z,16.10
2019-04-22T06:58:51.064Z,16.60
2019-04-22T07:03:26.934Z,16.50
2019-04-22T07:11:21.788Z,17.00
2019-04-22T07:19:48.739Z,17.10
2019-04-22T07:24:24.235Z,17.40
2019-04-22T07:33:00.663Z,17.20
2019-04-22T07:40:59.366Z,17.50
2019-04-22T07:45:25.436Z,17.90
2019-04-22T07:49:45.200Z,18.00
2019-04-22T07:53:48.998Z,17.70
2019-04-22T07:58:05.384Z,17.50
2019-04-22T08:02:16.026Z,17.70
2019-04-22T08:06:32.550Z,18.10
2019-04-22T08:15:04.007Z,18.40
2019-04-22T08:19:23.176Z,18.80
2019-04-22T08:23:30.307Z,19.00
2019-04-22T08:27:46.867Z,19.40
2019-04-22T08:31:58.058Z,19.10
2019-04-22T08:40:28.829Z,18.80
2019-04-22T08:44:51.987Z,19.00
2019-04-22T08:48:51.508Z,18.70
2019-04-22T08:53:06.420Z,18.70
2019-04-22T08:57:22.453Z,18.80
2019-04-22T09:01:40.795Z,18.60
2019-04-22T09:05:55.380Z,18.70
2019-04-22T09:09:55.627Z,19.50
2019-04-22T09:14:11.233Z,19.40
2019-04-22T09:18:24.119Z,19.30
2019-04-22T09:22:50.349Z,19.00
2019-04-22T09:26:48.692Z,19.70
2019-04-22T09:31:02.842Z,19.70
2019-04-22T09:35:14.207Z,19.50
2019-04-22T09:39:30.295Z,19.30
2019-04-22T09:43:48.226Z,19.00
2019-04-22T09:48:03.119Z,18.90
2019-04-22T09:52:08.928Z,18.80
2019-04-22T09:56:29.882Z,18.80
2019-04-22T10:00:42.915Z,18.90
2019-04-22T10:13:32.031Z,18.60
2019-04-22T10:17:32.437Z,18.80
2019-04-22T10:21:57.320Z,18.90
2019-04-22T10:25:59.424Z,19.20
2019-04-22T10:30:15.109Z,19.00
2019-04-22T10:34:11.565Z,18.80
2019-04-22T10:38:12.391Z,18.50
2019-04-22T10:42:27.121Z,18.70
2019-04-22T10:46:40.132Z,18.90
2019-04-22T10:50:50.753Z,19.00
2019-04-22T10:55:03.435Z,18.90
2019-04-22T10:59:14.430Z,18.90
2019-04-22T11:03:24.749Z,19.10
2019-04-22T11:07:44.255Z,19.50
2019-04-22T11:11:56.600Z,19.60
2019-04-22T11:16:00.600Z,19.50
2019-04-22T11:20:11.832Z,19.20
2019-04-22T11:24:23.745Z,19.20
2019-04-22T11:28:35.928Z,18.90
2019-04-22T11:32:48.693Z,18.80
2019-04-22T11:37:01.055Z,18.70
2019-04-22T11:41:14.709Z,18.60
2019-04-22T11:45:29.183Z,19.00
2019-04-22T11:49:41.774Z,18.90
2019-04-22T11:53:52.593Z,18.60
2019-04-22T11:58:03.188Z,18.70
2019-04-22T12:02:16.137Z,18.80
2019-04-22T12:06:28.114Z,18.50
2019-04-22T12:10:50.920Z,18.50
2019-04-22T12:14:52.309Z,18.40
2019-04-22T12:19:03.187Z,18.40
2019-04-22T12:23:14.802Z,18.30
2019-04-22T12:27:28.324Z,18.30
2019-04-22T12:31:39.870Z,18.30
2019-04-22T12:35:52.604Z,18.30
2019-04-22T12:40:04.631Z,18.30
2019-04-22T12:44:16.215Z,18.00
2019-04-22T12:48:27.475Z,18.00
2019-04-22T12:52:45.703Z,18.20
2019-04-22T12:56:51.412Z,18.40
2019-04-22T13:01:03.287Z,18.10
2019-04-22T13:05:16.425Z,18.00
2019-04-22T13:09:27.518Z,18.20
2019-04-22T13:13:38.707Z,18.10
2019-04-22T13:18:01.063Z,18.10
2019-04-22T13:22:02.918Z,18.00
2019-04-22T13:26:15.108Z,18.00
2019-04-22T13:30:26.322Z,18.10
2019-04-22T13:34:45.221Z,18.10
2019-04-22T13:38:51.198Z,18.00
2019-04-22T13:43:02.778Z,18.00
2019-04-22T13:47:32.709Z,18.20
2019-04-22T13:52:04.159Z,18.10
2019-04-22T13:56:03.799Z,18.00
2019-04-22T13:59:58.238Z,18.00
2019-04-22T14:04:14.470Z,18.00
2019-04-22T14:08:26.948Z,18.10
2019-04-22T14:12:37.414Z,17.90
2019-04-22T14:16:49.025Z,17.80
2019-04-22T14:21:00.796Z,17.80
2019-04-22T14:25:12.661Z,17.80
2019-04-22T14:29:24.173Z,17.90
2019-04-22T14:33:36.244Z,17.80
2019-04-22T14:37:50.261Z,17.80
2019-04-22T14:42:26.850Z,17.70
2019-04-22T14:46:39.209Z,17.90
2019-04-22T14:50:51.756Z,17.70
2019-04-22T14:54:54.084Z,17.60
2019-04-22T14:58:58.843Z,17.50
2019-04-22T15:03:10.037Z,17.50
2019-04-22T15:07:25.218Z,17.40
2019-04-22T15:11:50.745Z,17.50
2019-04-22T15:16:02.694Z,17.40
2019-04-22T15:20:15.989Z,17.40
2019-04-22T15:24:29.386Z,17.50
2019-04-22T15:28:39.892Z,17.40
2019-04-22T15:32:53.701Z,17.40
2019-04-22T15:37:06.525Z,17.20
2019-04-22T15:41:20.688Z,17.10
2019-04-22T15:45:32.629Z,17.10
2019-04-22T15:49:43.254Z,17.10
2019-04-22T15:53:53.949Z,17.00
2019-04-22T15:58:05.898Z,16.80
2019-04-22T16:02:16.820Z,16.80
2019-04-22T16:06:30.178Z,16.70
2019-04-22T16:10:43.941Z,16.60
2019-04-22T16:14:56.957Z,16.50
2019-04-22T16:19:12.200Z,16.50
2019-04-22T16:23:36.567Z,16.50
2019-04-22T16:28:00.638Z,16.30
2019-04-22T16:32:15.637Z,16.20
2019-04-22T16:36:30.941Z,16.60
2019-04-22T16:40:42.872Z,16.10
2019-04-22T16:44:57.805Z,15.90
2019-04-22T16:49:11.640Z,15.80
2019-04-22T16:53:23.231Z,15.60
2019-04-22T16:57:35.817Z,15.50
2019-04-22T17:02:01.092Z,15.40
2019-04-22T17:06:25.638Z,15.30
2019-04-22T17:10:37.833Z,15.20
2019-04-22T17:14:56.794Z,15.20
2019-04-22T17:19:04.528Z,15.10
2019-04-22T17:23:17.801Z,15.00
2019-04-22T17:27:31.470Z,15.20
2019-04-22T17:31:48.453Z,15.10
2019-04-22T17:35:56.976Z,14.90
2019-04-22T17:40:31.631Z,14.70
2019-04-22T17:44:48.144Z,14.50
2019-04-22T17:48:57.475Z,14.40
2019-04-22T17:53:22.564Z,14.30
2019-04-22T17:57:29.505Z,14.20
2019-04-22T18:01:40.300Z,14.10
2019-04-22T18:05:40.951Z,14.00
2019-04-22T18:14:44.971Z,13.70
2019-04-22T18:18:31.027Z,13.50
2019-04-22T18:22:37.221Z,13.40
2019-04-22T18:26:57.663Z,13.30
2019-04-22T18:31:06.539Z,13.20
2019-04-22T18:35:20.506Z,13.10
2019-04-22T18:39:41.837Z,13.00
2019-04-22T18:43:51.771Z,12.90
2019-04-22T18:47:54.911Z,12.80
2019-04-22T18:52:20.760Z,12.80
2019-04-22T18:56:36.296Z,12.70
2019-04-22T19:00:34.233Z,12.60
2019-04-22T19:04:56.086Z,12.50
2019-04-22T19:09:27.347Z,12.50
2019-04-22T19:17:54.399Z,12.40
2019-04-22T19:22:02.509Z,12.30
2019-04-22T19:26:23.178Z,12.30
2019-04-22T19:30:31.598Z,12.20
2019-04-22T19:34:44.642Z,12.20
2019-04-22T19:38:52.702Z,12.10
2019-04-22T19:43:10.292Z,12.10
2019-04-22T19:47:38.264Z,12.00
2019-04-22T19:51:41.752Z,12.00
2019-04-22T19:55:43.650Z,11.90
2019-04-22T19:59:54.271Z,11.90
2019-04-22T20:04:31.461Z,11.90
2019-04-22T20:08:36.653Z,11.80
2019-04-22T20:12:42.817Z,11.80
2019-04-22T20:16:54.820Z,11.80
2019-04-22T20:21:17.866Z,11.70
2019-04-22T20:25:16.703Z,11.70
2019-04-22T20:29:41.818Z,11.60
2019-04-22T20:33:58.127Z,11.60
2019-04-22T20:38:07.562Z,11.60
2019-04-22T20:42:33.199Z,11.60
2019-04-22T20:46:32.548Z,11.60
2019-04-22T20:50:41.750Z,11.50
2019-04-22T20:54:55.684Z,11.50
2019-04-22T20:59:08.200Z,11.50
2019-04-22T21:03:10.392Z,11.50
2019-04-22T21:07:26.718Z,11.50
2019-04-22T21:11:38.442Z,11.50
2019-04-22T21:16:05.976Z,11.50
2019-04-22T21:20:22.414Z,11.50
2019-04-22T21:24:25.004Z,11.50
2019-04-22T21:28:38.766Z,11.50
2019-04-22T21:32:46.170Z,11.40
2019-04-22T21:37:09.227Z,11.40
2019-04-22T21:41:17.155Z,11.40
2019-04-22T21:45:23.792Z,11.40
2019-04-22T21:49:42.956Z,11.40
2019-04-22T21:58:12.265Z,11.40
2019-04-22T22:03:03.689Z,11.30
2019-04-22T22:06:31.079Z,11.30
2019-04-22T22:10:52.637Z,11.30
2019-04-22T22:15:04.295Z,11.20
2019-04-22T22:19:17.172Z,11.20
2019-04-22T22:23:44.047Z,11.20
2019-04-22T22:27:40.511Z,11.20
2019-04-22T22:31:57.819Z,11.20
2019-04-22T22:36:01.056Z,11.10
2019-04-22T22:40:06.547Z,11.10
2019-04-22T22:44:19.425Z,11.10
2019-04-22T22:48:44.715Z,11.00
2019-04-22T22:53:11.326Z,11.00
2019-04-22T22:57:17.156Z,11.00
2019-04-22T23:01:23.520Z,11.00
2019-04-22T23:05:37.681Z,11.00
2019-04-22T23:09:47.230Z,10.90
2019-04-22T23:14:05.316Z,10.90
2019-04-22T23:17:51.877Z,10.80
2019-04-22T23:22:14.040Z,10.80
2019-04-22T23:26:42.063Z,10.70
2019-04-22T23:30:57.022Z,10.70
2019-04-22T23:35:33.265Z,10.70
2019-04-22T23:39:54.640Z,10.70
2019-04-22T23:44:13.525Z,10.60
2019-04-22T23:48:19.181Z,10.60
2019-04-22T23:52:51.490Z,10.50
2019-04-22T23:56:57.004Z,10.50
